Time;durP1;ratioP1;P1;durP2;ratioP2;P2;SDS_P1;SDS_P2;PMS_P1;PMS_P2;Temp;Humidity;BMP_temperature;BMP_pressure;BME280_temperature;BME280_humidity;BME280_pressure;Samples;Min_cycle;Max_cycle;Signal;HPM_P1;HPM_P2
2023/04/02 00:01:00;;;;;;;;;;;7.40;92.00;;;;;;5074717;28;19908;-36
2023/04/02 00:03:58;;;;;;;;;;;7.30;92.10;;;;;;5074782;28;20410;-38
2023/04/02 00:06:32;;;;;;;;;;;7.30;92.00;;;;;;5074071;28;19925;-40
2023/04/02 00:09:03;;;;;;;;;;;7.30;92.10;;;;;;5073308;28;19995;-39
2023/04/02 00:11:32;;;;;;;;;;;7.30;92.10;;;;;;5074563;28;19913;-37
2023/04/02 00:13:59;;;;;;;;;;;7.20;91.90;;;;;;5074555;28;20316;-37
2023/04/02 00:16:26;;;;;;;;;;;7.20;92.00;;;;;;5074502;28;19909;-38
2023/04/02 00:18:54;;;;;;;;;;;7.20;92.10;;;;;;5074687;28;20283;-45
2023/04/02 00:21:33;;;;;;;;;;;7.20;92.10;;;;;;5074685;28;19908;-46
2023/04/02 00:23:59;;;;;;;;;;;7.30;92.20;;;;;;5074186;28;19925;-39
2023/04/02 00:26:41;;;;;;;;;;;7.30;92.30;;;;;;5074108;28;19912;-37
2023/04/02 00:29:06;;;;;;;;;;;7.30;92.30;;;;;;5074192;28;19914;-42
2023/04/02 00:31:33;;;;;;;;;;;7.30;92.20;;;;;;5073029;28;20372;-39
2023/04/02 00:34:00;;;;;;;;;;;7.30;92.20;;;;;;5074140;28;19912;-38
2023/04/02 00:36:28;;;;;;;;;;;7.20;92.10;;;;;;5074065;28;20341;-36
2023/04/02 00:38:56;;;;;;;;;;;7.20;92.00;;;;;;5074101;28;19908;-38
2023/04/02 00:41:23;;;;;;;;;;;7.20;92.10;;;;;;5073983;28;20390;-37
2023/04/02 00:43:50;;;;;;;;;;;7.20;92.10;;;;;;5074216;28;19912;-38
2023/04/02 00:46:18;;;;;;;;;;;7.20;92.10;;;;;;5074019;28;19998;-38
2023/04/02 00:48:53;;;;;;;;;;;7.20;92.10;;;;;;5073911;28;20261;-38
2023/04/02 00:51:22;;;;;;;;;;;7.20;92.10;;;;;;5073806;28;19935;-37
2023/04/02 00:53:49;;;;;;;;;;;7.20;92.10;;;;;;5074159;28;20286;-38
2023/04/02 00:56:37;;;;;;;;;;;7.20;92.10;;;;;;5073810;28;19909;-37
2023/04/02 00:59:03;;;;;;;;;;;7.20;92.10;;;;;;5073115;28;19959;-39
2023/04/02 01:01:35;;;;;;;;;;;7.20;92.10;;;;;;5073557;28;19959;-37
2023/04/02 01:04:01;;;;;;;;;;;7.20;91.80;;;;;;5073486;28;20356;-44
2023/04/02 01:06:29;;;;;;;;;;;7.10;91.80;;;;;;5073670;28;19952;-38
2023/04/02 01:09:18;;;;;;;;;;;7.10;91.80;;;;;;5073387;28;19909;-38
2023/04/02 01:11:54;;;;;;;;;;;7.10;91.90;;;;;;5073730;28;20366;-40
2023/04/02 01:14:28;;;;;;;;;;;7.10;91.90;;;;;;5073358;28;19916;-39
2023/04/02 01:17:25;;;;;;;;;;;7.10;92.00;;;;;;5073342;28;19909;-40
2023/04/02 01:19:53;;;;;;;;;;;7.10;92.00;;;;;;5072686;28;19913;-40
2023/04/02 01:22:18;;;;;;;;;;;7.10;91.90;;;;;;5073142;28;20035;-37
2023/04/02 01:24:44;;;;;;;;;;;7.10;91.70;;;;;;5073444;28;19955;-39
2023/04/02 01:27:13;;;;;;;;;;;7.00;91.50;;;;;;5072910;28;19912;-36
2023/04/02 01:29:40;;;;;;;;;;;7.00;91.70;;;;;;5072985;28;20006;-39
2023/04/02 01:32:08;;;;;;;;;;;6.90;91.80;;;;;;5073279;28;20367;-38
2023/04/02 01:34:33;;;;;;;;;;;6.90;91.90;;;;;;5072913;28;19909;-39
2023/04/02 01:36:59;;;;;;;;;;;6.90;91.80;;;;;;5073038;28;19919;-38
2023/04/02 01:39:31;;;;;;;;;;;6.90;91.80;;;;;;5071576;28;19947;-38
2023/04/02 01:42:02;;;;;;;;;;;6.90;91.90;;;;;;5072707;28;19991;-37
2023/04/02 01:44:35;;;;;;;;;;;6.90;92.00;;;;;;5072632;28;20014;-37
2023/04/02 01:47:02;;;;;;;;;;;6.90;91.60;;;;;;5072801;28;19913;-38
2023/04/02 01:49:28;;;;;;;;;;;6.90;91.70;;;;;;5072614;28;19991;-36
2023/04/02 01:51:55;;;;;;;;;;;6.90;91.70;;;;;;5072640;28;20022;-37
2023/04/02 01:54:21;;;;;;;;;;;6.90;91.60;;;;;;5072354;28;19908;-39
2023/04/02 01:56:47;;;;;;;;;;;6.90;91.70;;;;;;5071233;28;19908;-36
2023/04/02 01:59:14;;;;;;;;;;;6.80;91.70;;;;;;5072455;28;19916;-39
2023/04/02 02:01:56;;;;;;;;;;;6.90;91.90;;;;;;5072393;28;19963;-38
2023/04/02 02:04:21;;;;;;;;;;;6.80;91.70;;;;;;5072576;28;20274;-39
2023/04/02 02:06:47;;;;;;;;;;;6.80;91.60;;;;;;5072230;28;19913;-37
2023/04/02 02:09:21;;;;;;;;;;;6.80;91.70;;;;;;5072229;28;19909;-40
2023/04/02 02:11:47;;;;;;;;;;;6.80;91.80;;;;;;5072426;28;19909;-41
2023/04/02 02:14:23;;;;;;;;;;;6.80;91.90;;;;;;5072571;28;20000;-39
2023/04/02 02:16:49;;;;;;;;;;;6.80;91.90;;;;;;5072290;28;19912;-38
2023/04/02 02:19:21;;;;;;;;;;;6.80;91.90;;;;;;5072177;28;19909;-40
2023/04/02 02:21:57;;;;;;;;;;;6.80;91.90;;;;;;5072148;28;19996;-39
2023/04/02 02:24:24;;;;;;;;;;;6.80;91.60;;;;;;5072389;28;20295;-40
2023/04/02 02:26:54;;;;;;;;;;;6.80;91.80;;;;;;5071991;28;19912;-38
2023/04/02 02:29:21;;;;;;;;;;;6.80;91.70;;;;;;5072348;28;20010;-39
2023/04/02 02:31:51;;;;;;;;;;;6.80;91.80;;;;;;5071257;28;19995;-38
2023/04/02 02:34:23;;;;;;;;;;;6.80;91.80;;;;;;5071992;28;19912;-37
2023/04/02 02:36:55;;;;;;;;;;;6.80;91.70;;;;;;5071939;28;19917;-37
2023/04/02 02:39:20;;;;;;;;;;;6.70;91.60;;;;;;5071969;28;19909;-39
2023/04/02 02:41:55;;;;;;;;;;;6.80;91.70;;;;;;5070600;28;19992;-38
2023/04/02 02:44:41;;;;;;;;;;;6.80;91.60;;;;;;5071973;28;19920;-39
2023/04/02 02:47:13;;;;;;;;;;;6.70;91.50;;;;;;5071389;28;19917;-37
2023/04/02 02:49:40;;;;;;;;;;;6.70;91.50;;;;;;5071772;28;19913;-35
2023/04/02 02:52:15;;;;;;;;;;;6.70;91.60;;;;;;5072069;28;19952;-36
2023/04/02 02:54:43;;;;;;;;;;;6.60;91.40;;;;;;5071877;28;19908;-38
2023/04/02 02:57:11;;;;;;;;;;;6.60;91.40;;;;;;5071789;28;19908;-39
2023/04/02 02:59:37;;;;;;;;;;;6.50;91.40;;;;;;5071771;28;20083;-37
2023/04/02 03:02:04;;;;;;;;;;;6.60;91.60;;;;;;5071898;28;19931;-38
2023/04/02 03:04:34;;;;;;;;;;;6.50;91.50;;;;;;5071743;28;20003;-37
2023/04/02 03:07:00;;;;;;;;;;;6.50;91.40;;;;;;5071501;28;19912;-38
2023/04/02 03:09:35;;;;;;;;;;;6.40;90.90;;;;;;5071329;28;19913;-38
2023/04/02 03:12:20;;;;;;;;;;;6.40;91.20;;;;;;5071868;28;19908;-38
2023/04/02 03:14:52;;;;;;;;;;;6.30;91.30;;;;;;5071476;28;19916;-41
2023/04/02 03:17:22;;;;;;;;;;;6.30;91.30;;;;;;5071677;28;20003;-36
2023/04/02 03:19:51;;;;;;;;;;;6.30;91.30;;;;;;5071479;28;19908;-38
2023/04/02 03:22:34;;;;;;;;;;;6.30;91.40;;;;;;5071156;28;19917;-39
2023/04/02 03:25:08;;;;;;;;;;;6.30;91.40;;;;;;5071340;28;20003;-35
2023/04/02 03:27:36;;;;;;;;;;;6.30;91.20;;;;;;5071353;28;19912;-38
2023/04/02 03:30:05;;;;;;;;;;;6.30;91.40;;;;;;5071417;28;20487;-38
2023/04/02 03:32:33;;;;;;;;;;;6.30;91.40;;;;;;5071115;28;19916;-38
2023/04/02 03:35:01;;;;;;;;;;;6.30;91.40;;;;;;5071217;28;19912;-44
2023/04/02 03:37:37;;;;;;;;;;;6.30;91.50;;;;;;5071236;28;19916;-36
2023/04/02 03:40:07;;;;;;;;;;;6.30;91.40;;;;;;5071186;28;19909;-38
2023/04/02 03:42:38;;;;;;;;;;;6.30;91.30;;;;;;5071851;28;19971;-38
2023/04/02 03:45:03;;;;;;;;;;;6.30;91.30;;;;;;5074920;28;20020;-39
2023/04/02 03:47:47;;;;;;;;;;;6.30;91.20;;;;;;5074727;28;20380;-37
2023/04/02 03:50:31;;;;;;;;;;;6.30;91.30;;;;;;5074686;28;20022;-38
2023/04/02 03:53:01;;;;;;;;;;;6.30;91.50;;;;;;5074752;28;19909;-37
2023/04/02 03:55:28;;;;;;;;;;;6.30;91.40;;;;;;5074669;28;19913;-39
2023/04/02 03:58:12;;;;;;;;;;;6.30;91.30;;;;;;5074928;28;20367;-38
2023/04/02 04:00:38;;;;;;;;;;;6.30;90.70;;;;;;5074796;28;20553;-37
2023/04/02 04:03:25;;;;;;;;;;;6.20;91.00;;;;;;5074478;28;19908;-38
2023/04/02 04:05:52;;;;;;;;;;;6.20;91.00;;;;;;5074694;28;20333;-38
2023/04/02 04:08:20;;;;;;;;;;;6.20;90.80;;;;;;5074372;28;19940;-36
2023/04/02 04:10:49;;;;;;;;;;;6.10;90.90;;;;;;5074436;28;19913;-37
2023/04/02 04:13:17;;;;;;;;;;;6.10;91.10;;;;;;5074498;28;19908;-37
2023/04/02 04:15:55;;;;;;;;;;;6.10;90.90;;;;;;5074715;28;19970;-37
2023/04/02 04:18:33;;;;;;;;;;;6.10;90.90;;;;;;5074213;28;19909;-34
2023/04/02 04:21:04;;;;;;;;;;;6.10;90.90;;;;;;5074545;28;19912;-37
2023/04/02 04:23:34;;;;;;;;;;;6.10;90.80;;;;;;5074148;28;19929;-36
2023/04/02 04:26:19;;;;;;;;;;;6.00;90.70;;;;;;5073996;28;19908;-36
2023/04/02 04:29:04;;;;;;;;;;;6.00;90.70;;;;;;5074075;28;19919;-36
2023/04/02 04:31:37;;;;;;;;;;;6.00;90.80;;;;;;5073927;28;19908;-37
2023/04/02 04:34:07;;;;;;;;;;;6.00;90.90;;;;;;5073884;28;19909;-37
2023/04/02 04:36:40;;;;;;;;;;;6.00;90.90;;;;;;5073950;28;20356;-36
2023/04/02 04:39:13;;;;;;;;;;;6.00;91.00;;;;;;5074248;28;19932;-37
2023/04/02 04:41:39;;;;;;;;;;;6.00;91.00;;;;;;5073712;28;19920;-35
2023/04/02 04:44:05;;;;;;;;;;;6.10;91.00;;;;;;5073811;28;20313;-35
2023/04/02 04:46:49;;;;;;;;;;;6.10;90.90;;;;;;5073874;28;19916;-36
2023/04/02 04:49:24;;;;;;;;;;;6.00;90.70;;;;;;5073608;28;19916;-36
2023/04/02 04:52:05;;;;;;;;;;;6.00;89.80;;;;;;5073645;28;19916;-36
2023/04/02 04:54:30;;;;;;;;;;;5.80;90.00;;;;;;5072786;28;19908;-34
2023/04/02 04:56:59;;;;;;;;;;;5.80;90.20;;;;;;5073591;28;20379;-37
2023/04/02 04:59:39;;;;;;;;;;;5.70;90.40;;;;;;5073513;28;19934;-47
2023/04/02 05:02:11;;;;;;;;;;;5.70;90.50;;;;;;5073424;28;19908;-38
2023/04/02 05:04:37;;;;;;;;;;;5.70;90.60;;;;;;5073483;28;19958;-37
2023/04/02 05:07:12;;;;;;;;;;;5.60;90.70;;;;;;5073278;28;19916;-40
2023/04/02 05:09:43;;;;;;;;;;;5.60;90.90;;;;;;5073180;28;19934;-35
2023/04/02 05:12:25;;;;;;;;;;;5.60;90.90;;;;;;5073440;28;19947;-37
2023/04/02 05:15:05;;;;;;;;;;;5.60;90.80;;;;;;5071795;28;20321;-34
2023/04/02 05:17:31;;;;;;;;;;;5.50;90.60;;;;;;5073003;28;19915;-36
2023/04/02 05:20:08;;;;;;;;;;;5.50;90.50;;;;;;5073399;28;20279;-36
2023/04/02 05:22:41;;;;;;;;;;;5.40;90.50;;;;;;5072873;28;19916;-36
2023/04/02 05:25:09;;;;;;;;;;;5.40;90.50;;;;;;5073247;28;19915;-38
2023/04/02 05:27:39;;;;;;;;;;;5.50;90.50;;;;;;5071599;28;19913;-37
2023/04/02 05:30:14;;;;;;;;;;;5.40;90.00;;;;;;5072816;28;19909;-35
2023/04/02 05:32:42;;;;;;;;;;;5.30;89.70;;;;;;5072966;28;19909;-37
2023/04/02 05:35:13;;;;;;;;;;;5.30;89.60;;;;;;5072781;28;19908;-36
2023/04/02 05:37:38;;;;;;;;;;;5.20;89.80;;;;;;5072920;28;19909;-37
2023/04/02 05:40:12;;;;;;;;;;;5.20;89.80;;;;;;5073135;28;19915;-38
2023/04/02 05:42:38;;;;;;;;;;;5.20;89.70;;;;;;5072630;28;19909;-37
2023/04/02 05:45:22;;;;;;;;;;;5.20;89.90;;;;;;5072587;28;20435;-37
2023/04/02 05:47:50;;;;;;;;;;;5.20;90.10;;;;;;5072497;28;19965;-37
2023/04/02 05:50:42;;;;;;;;;;;5.20;89.70;;;;;;5072798;28;20578;-36
2023/04/02 05:53:24;;;;;;;;;;;5.20;89.90;;;;;;5070027;28;19931;-39
2023/04/02 05:55:52;;;;;;;;;;;5.10;89.60;;;;;;5072432;28;20327;-35
2023/04/02 05:58:25;;;;;;;;;;;5.20;89.70;;;;;;5072450;28;20287;-37
2023/04/02 06:01:02;;;;;;;;;;;5.10;89.60;;;;;;5072904;28;20372;-36
2023/04/02 06:03:37;;;;;;;;;;;5.20;89.60;;;;;;5072260;28;19962;-36
2023/04/02 06:06:11;;;;;;;;;;;5.10;88.70;;;;;;5072160;28;19908;-36
2023/04/02 06:08:40;;;;;;;;;;;5.10;88.80;;;;;;5072015;28;19958;-38
2023/04/02 06:11:10;;;;;;;;;;;5.10;88.90;;;;;;5072302;28;19909;-38
2023/04/02 06:13:36;;;;;;;;;;;5.10;88.70;;;;;;5072166;28;20015;-38
2023/04/02 06:16:02;;;;;;;;;;;5.10;86.40;;;;;;5072133;28;19940;-36
2023/04/02 06:18:29;;;;;;;;;;;5.00;87.70;;;;;;5072093;28;19962;-39
2023/04/02 06:20:54;;;;;;;;;;;5.00;87.90;;;;;;5072108;28;19970;-38
2023/04/02 06:23:29;;;;;;;;;;;5.00;87.60;;;;;;5072010;28;20547;-36
2023/04/02 06:26:04;;;;;;;;;;;5.00;88.10;;;;;;5072296;28;19917;-37
2023/04/02 06:28:34;;;;;;;;;;;5.00;88.10;;;;;;5071714;28;19912;-36
2023/04/02 06:31:01;;;;;;;;;;;5.00;87.90;;;;;;5072163;28;20379;-35
2023/04/02 06:33:27;;;;;;;;;;;4.90;86.00;;;;;;5072111;28;19916;-38
2023/04/02 06:35:53;;;;;;;;;;;4.90;85.90;;;;;;5072080;28;20360;-36
2023/04/02 06:38:25;;;;;;;;;;;4.80;86.10;;;;;;5071884;28;20034;-36
2023/04/02 06:40:51;;;;;;;;;;;4.70;86.80;;;;;;5072093;28;19909;-39
2023/04/02 06:43:21;;;;;;;;;;;4.80;86.90;;;;;;5071765;28;19915;-38
2023/04/02 06:45:48;;;;;;;;;;;4.70;86.40;;;;;;5071803;28;19908;-37
2023/04/02 06:48:16;;;;;;;;;;;4.70;87.20;;;;;;5071807;28;19913;-36
2023/04/02 06:50:49;;;;;;;;;;;4.70;86.60;;;;;;5072036;28;20272;-37
2023/04/02 06:53:35;;;;;;;;;;;4.70;85.70;;;;;;5071634;28;19912;-38
2023/04/02 06:56:09;;;;;;;;;;;4.60;86.50;;;;;;5071416;28;20364;-36
2023/04/02 06:58:35;;;;;;;;;;;4.70;85.40;;;;;;5070373;28;19912;-38
2023/04/02 07:01:00;;;;;;;;;;;4.60;85.80;;;;;;5071737;28;19962;-37
2023/04/02 07:03:27;;;;;;;;;;;4.60;86.00;;;;;;5071949;28;19912;-38
2023/04/02 07:05:53;;;;;;;;;;;4.60;86.50;;;;;;5071445;28;19908;-35
2023/04/02 07:08:19;;;;;;;;;;;4.70;86.90;;;;;;5071328;28;19916;-37
2023/04/02 07:10:45;;;;;;;;;;;4.80;86.90;;;;;;5071475;28;19909;-37
2023/04/02 07:13:28;;;;;;;;;;;4.80;86.10;;;;;;5071404;28;19915;-38
2023/04/02 07:15:55;;;;;;;;;;;4.90;86.30;;;;;;5071725;28;19920;-37
2023/04/02 07:18:20;;;;;;;;;;;5.00;86.70;;;;;;5073641;28;20383;-36
2023/04/02 07:20:45;;;;;;;;;;;5.10;86.70;;;;;;5075383;28;19908;-39
2023/04/02 07:23:12;;;;;;;;;;;5.10;86.20;;;;;;5075007;28;20051;-36
2023/04/02 07:25:38;;;;;;;;;;;5.20;86.60;;;;;;5074069;28;19908;-38
2023/04/02 07:28:03;;;;;;;;;;;5.20;85.70;;;;;;5075290;28;19979;-37
2023/04/02 07:30:29;;;;;;;;;;;5.20;86.10;;;;;;5075299;28;20441;-39
2023/04/02 07:32:54;;;;;;;;;;;5.20;85.60;;;;;;5074954;28;19927;-40
2023/04/02 07:35:20;;;;;;;;;;;5.20;86.50;;;;;;5075031;28;19957;-37
2023/04/02 07:37:45;;;;;;;;;;;5.30;86.40;;;;;;5075317;28;19909;-40
2023/04/02 07:40:17;;;;;;;;;;;5.30;86.70;;;;;;5074770;28;20356;-36
2023/04/02 07:42:43;;;;;;;;;;;5.40;86.90;;;;;;5074826;28;20000;-37
2023/04/02 07:45:09;;;;;;;;;;;5.50;86.80;;;;;;5074760;28;19919;-36
2023/04/02 07:47:34;;;;;;;;;;;5.50;86.70;;;;;;5074585;28;19912;-37
2023/04/02 07:50:00;;;;;;;;;;;5.60;86.60;;;;;;5074640;28;19908;-36
2023/04/02 07:52:25;;;;;;;;;;;5.60;85.90;;;;;;5074539;28;19937;-39
2023/04/02 07:54:51;;;;;;;;;;;5.60;84.20;;;;;;5074777;28;19908;-37
2023/04/02 07:57:16;;;;;;;;;;;5.50;85.00;;;;;;5074831;28;20264;-38
2023/04/02 07:59:42;;;;;;;;;;;5.60;85.40;;;;;;5074814;28;19938;-38
2023/04/02 08:02:17;;;;;;;;;;;5.60;85.80;;;;;;5074794;28;19908;-39
2023/04/02 08:04:42;;;;;;;;;;;5.70;86.10;;;;;;5074494;28;20360;-37
2023/04/02 08:07:08;;;;;;;;;;;5.70;86.90;;;;;;5074119;28;19924;-39
2023/04/02 08:09:33;;;;;;;;;;;5.80;88.50;;;;;;5074562;28;19917;-37
2023/04/02 08:11:58;;;;;;;;;;;5.80;90.00;;;;;;5074301;28;20367;-36
2023/04/02 08:14:24;;;;;;;;;;;5.80;88.90;;;;;;5074040;28;20011;-39
2023/04/02 08:16:51;;;;;;;;;;;5.80;89.60;;;;;;5074120;28;19909;-35
2023/04/02 08:19:17;;;;;;;;;;;5.70;88.60;;;;;;5073958;28;19944;-37
2023/04/02 08:21:43;;;;;;;;;;;5.70;86.70;;;;;;5074198;28;19966;-37
2023/04/02 08:24:08;;;;;;;;;;;5.60;86.30;;;;;;5073744;28;19924;-38
2023/04/02 08:26:35;;;;;;;;;;;5.60;86.10;;;;;;5073975;28;19908;-36
2023/04/02 08:29:00;;;;;;;;;;;5.50;82.80;;;;;;5073194;28;20011;-37
2023/04/02 08:31:26;;;;;;;;;;;5.50;84.30;;;;;;5073767;28;20386;-38
2023/04/02 08:33:52;;;;;;;;;;;5.50;85.10;;;;;;5074189;28;19916;-38
2023/04/02 08:36:18;;;;;;;;;;;5.50;84.40;;;;;;5073615;28;19909;-38
2023/04/02 08:38:44;;;;;;;;;;;5.60;85.20;;;;;;5073469;28;19919;-37
2023/04/02 08:41:18;;;;;;;;;;;5.60;85.40;;;;;;5074016;28;19963;-37
2023/04/02 08:43:55;;;;;;;;;;;5.70;85.20;;;;;;5073830;28;19963;-35
2023/04/02 08:46:35;;;;;;;;;;;5.80;84.50;;;;;;5073708;28;19918;-37
2023/04/02 08:49:03;;;;;;;;;;;5.80;84.40;;;;;;5073591;28;19912;-36
2023/04/02 08:51:34;;;;;;;;;;;5.90;83.70;;;;;;5073424;28;19931;-39
2023/04/02 08:54:07;;;;;;;;;;;5.90;83.50;;;;;;5073576;28;19909;-37
2023/04/02 08:56:39;;;;;;;;;;;5.90;83.50;;;;;;5073863;28;19908;-36
2023/04/02 08:59:14;;;;;;;;;;;5.90;81.80;;;;;;5073863;28;19915;-36
2023/04/02 09:01:51;;;;;;;;;;;5.90;83.70;;;;;;5073785;28;20482;-38
2023/04/02 09:04:20;;;;;;;;;;;6.00;84.60;;;;;;5073306;28;19909;-37
2023/04/02 09:06:46;;;;;;;;;;;6.10;84.60;;;;;;5073511;28;19912;-37
2023/04/02 09:09:12;;;;;;;;;;;6.20;84.40;;;;;;5073376;28;19909;-41
2023/04/02 09:11:38;;;;;;;;;;;6.30;83.50;;;;;;5073256;28;20387;-40
2023/04/02 09:14:05;;;;;;;;;;;6.40;81.50;;;;;;5073540;28;19908;-37
2023/04/02 09:16:43;;;;;;;;;;;6.30;80.00;;;;;;5073452;28;19916;-39
2023/04/02 09:19:17;;;;;;;;;;;6.30;80.30;;;;;;5073127;28;20011;-38
2023/04/02 09:21:51;;;;;;;;;;;6.40;82.20;;;;;;5072081;28;19916;-36
2023/04/02 09:24:17;;;;;;;;;;;6.50;81.30;;;;;;5073080;28;19966;-39
2023/04/02 09:26:42;;;;;;;;;;;6.50;80.70;;;;;;5072747;28;19913;-38
2023/04/02 09:29:11;;;;;;;;;;;6.50;81.50;;;;;;5072974;28;19966;-37
2023/04/02 09:31:39;;;;;;;;;;;6.50;79.90;;;;;;5072927;28;19935;-38
2023/04/02 09:34:31;;;;;;;;;;;6.60;80.70;;;;;;5072862;28;19908;-38
2023/04/02 09:37:06;;;;;;;;;;;6.70;80.30;;;;;;5072421;28;19908;-37
2023/04/02 09:39:31;;;;;;;;;;;6.80;80.60;;;;;;5072706;28;19909;-36
2023/04/02 09:41:57;;;;;;;;;;;6.80;83.00;;;;;;5072261;28;19908;-37
2023/04/02 09:44:24;;;;;;;;;;;6.90;83.70;;;;;;5072783;28;20315;-37
2023/04/02 09:46:58;;;;;;;;;;;6.90;79.60;;;;;;5072521;28;19919;-38
2023/04/02 09:49:28;;;;;;;;;;;6.90;78.10;;;;;;5072582;28;19908;-36
2023/04/02 09:52:26;;;;;;;;;;;6.80;78.80;;;;;;5072419;28;19908;-36
2023/04/02 09:55:25;;;;;;;;;;;6.80;79.70;;;;;;5070782;28;20340;-36
2023/04/02 09:58:04;;;;;;;;;;;6.80;78.80;;;;;;5070793;28;19909;-36
2023/04/02 10:00:30;;;;;;;;;;;6.80;78.70;;;;;;5072359;28;19940;-37
2023/04/02 10:03:04;;;;;;;;;;;6.70;78.00;;;;;;5072297;28;19909;-38
2023/04/02 10:05:31;;;;;;;;;;;6.70;77.80;;;;;;5072046;28;19958;-39
2023/04/02 10:08:05;;;;;;;;;;;6.70;79.90;;;;;;5072481;28;19912;-37
2023/04/02 10:10:35;;;;;;;;;;;6.80;79.80;;;;;;5072222;28;19916;-37
2023/04/02 10:13:13;;;;;;;;;;;6.80;80.20;;;;;;5072351;28;20276;-37
2023/04/02 10:15:45;;;;;;;;;;;6.90;82.00;;;;;;5072400;28;20287;-39
2023/04/02 10:18:29;;;;;;;;;;;6.80;82.10;;;;;;5072592;28;20359;-37
2023/04/02 10:20:58;;;;;;;;;;;6.80;82.60;;;;;;5072026;28;19959;-36
2023/04/02 10:23:25;;;;;;;;;;;6.80;82.70;;;;;;5071799;28;19971;-38
2023/04/02 10:25:56;;;;;;;;;;;6.90;82.70;;;;;;5072099;28;19939;-37
2023/04/02 10:28:41;;;;;;;;;;;7.00;82.30;;;;;;5071805;28;19913;-39
2023/04/02 10:31:17;;;;;;;;;;;7.20;82.00;;;;;;5072039;28;19909;-38
2023/04/02 10:33:46;;;;;;;;;;;7.40;83.20;;;;;;5070623;28;19908;-39
2023/04/02 10:36:31;;;;;;;;;;;7.50;80.00;;;;;;5071980;28;19908;-38
2023/04/02 10:39:00;;;;;;;;;;;7.60;75.70;;;;;;5072107;28;20391;-38
2023/04/02 10:41:42;;;;;;;;;;;7.50;74.90;;;;;;5071690;28;19914;-38
2023/04/02 10:44:11;;;;;;;;;;;7.40;74.60;;;;;;5071641;28;19908;-39
2023/04/02 10:46:55;;;;;;;;;;;7.30;73.80;;;;;;5071665;28;20335;-39
2023/04/02 10:49:39;;;;;;;;;;;7.20;74.60;;;;;;5071883;28;20249;-39
2023/04/02 10:52:04;;;;;;;;;;;7.10;77.10;;;;;;5071061;28;20011;-38
2023/04/02 10:54:37;;;;;;;;;;;7.10;76.10;;;;;;5071944;28;19996;-39
2023/04/02 10:57:21;;;;;;;;;;;7.10;75.80;;;;;;5070255;28;20382;-36
2023/04/02 11:00:05;;;;;;;;;;;7.00;77.00;;;;;;5071879;28;19960;-39
2023/04/02 11:02:33;;;;;;;;;;;7.10;74.30;;;;;;5072021;28;20348;-38
2023/04/02 11:05:02;;;;;;;;;;;7.10;75.50;;;;;;5071681;28;19913;-39
2023/04/02 11:07:29;;;;;;;;;;;7.10;75.50;;;;;;5071645;28;19916;-38
2023/04/02 11:09:56;;;;;;;;;;;7.10;74.70;;;;;;5071611;28;19915;-39
2023/04/02 11:12:24;;;;;;;;;;;7.10;76.40;;;;;;5071640;28;19915;-38
2023/04/02 11:14:50;;;;;;;;;;;7.20;74.40;;;;;;5071573;28;19908;-40
2023/04/02 11:17:18;;;;;;;;;;;7.30;73.10;;;;;;5071581;28;19923;-49
2023/04/02 11:19:44;;;;;;;;;;;7.40;74.80;;;;;;5071833;28;19908;-39
2023/04/02 11:22:17;;;;;;;;;;;7.50;73.40;;;;;;5071710;28;19908;-40
2023/04/02 11:24:44;;;;;;;;;;;7.70;74.40;;;;;;5071548;28;19912;-41
2023/04/02 11:27:17;;;;;;;;;;;7.80;74.80;;;;;;5071686;28;19924;-44
2023/04/02 11:29:44;;;;;;;;;;;7.90;70.90;;;;;;5071376;28;20009;-38
2023/04/02 11:32:26;;;;;;;;;;;8.00;73.20;;;;;;5071500;28;19948;-40
2023/04/02 11:34:54;;;;;;;;;;;8.20;71.20;;;;;;5071505;28;19908;-39
2023/04/02 11:37:29;;;;;;;;;;;8.20;71.70;;;;;;5071693;28;19908;-40
2023/04/02 11:39:57;;;;;;;;;;;8.30;75.10;;;;;;5071793;28;19908;-39
2023/04/02 11:42:24;;;;;;;;;;;8.40;76.20;;;;;;5071754;28;19909;-42
2023/04/02 11:44:50;;;;;;;;;;;8.50;76.30;;;;;;5071426;28;19916;-39
2023/04/02 11:47:23;;;;;;;;;;;8.60;77.00;;;;;;5071261;28;19912;-39
2023/04/02 11:49:59;;;;;;;;;;;8.70;78.40;;;;;;5071380;28;19963;-41
2023/04/02 11:52:25;;;;;;;;;;;8.70;76.50;;;;;;5071421;28;19909;-40
2023/04/02 11:55:09;;;;;;;;;;;8.70;73.30;;;;;;5070062;28;19916;-41
2023/04/02 11:57:40;;;;;;;;;;;8.80;73.50;;;;;;5071210;28;19935;-39
2023/04/02 12:00:16;;;;;;;;;;;8.80;67.20;;;;;;5069929;28;19912;-39
2023/04/02 12:03:02;;;;;;;;;;;8.80;70.50;;;;;;5071137;28;19909;-38
2023/04/02 12:05:36;;;;;;;;;;;8.90;73.20;;;;;;5074815;28;19915;-40
2023/04/02 12:08:08;;;;;;;;;;;8.90;66.70;;;;;;5074575;28;19920;-38
2023/04/02 12:10:54;;;;;;;;;;;8.90;73.00;;;;;;5074598;28;19916;-39
2023/04/02 12:13:38;;;;;;;;;;;9.00;71.90;;;;;;5074499;28;19909;-40
2023/04/02 12:16:05;;;;;;;;;;;9.00;66.90;;;;;;5074575;28;19914;-39
2023/04/02 12:18:31;;;;;;;;;;;9.00;67.90;;;;;;5074591;28;20263;-54
2023/04/02 12:20:57;;;;;;;;;;;9.00;68.10;;;;;;5074580;28;19962;-39
2023/04/02 12:23:28;;;;;;;;;;;9.00;69.50;;;;;;5074369;28;19957;-41
2023/04/02 12:25:55;;;;;;;;;;;9.10;66.80;;;;;;5074590;28;19908;-40
2023/04/02 12:28:21;;;;;;;;;;;9.10;65.90;;;;;;5074347;28;19913;-39
2023/04/02 12:30:48;;;;;;;;;;;9.20;65.90;;;;;;5074640;28;20341;-39
2023/04/02 12:33:15;;;;;;;;;;;9.20;67.80;;;;;;5074243;28;20356;-39
2023/04/02 12:35:41;;;;;;;;;;;9.20;67.00;;;;;;5074298;28;20014;-39
2023/04/02 12:38:30;;;;;;;;;;;9.30;65.50;;;;;;5074191;28;19908;-37
2023/04/02 12:40:55;;;;;;;;;;;9.30;63.30;;;;;;5073577;28;19908;-38
2023/04/02 12:43:22;;;;;;;;;;;9.40;66.00;;;;;;5074395;28;19909;-38
2023/04/02 12:45:50;;;;;;;;;;;9.50;68.90;;;;;;5073981;28;19908;-39
2023/04/02 12:48:16;;;;;;;;;;;9.60;69.50;;;;;;5073602;28;19912;-39
2023/04/02 12:50:41;;;;;;;;;;;9.80;73.10;;;;;;5074063;28;20011;-39
2023/04/02 12:53:17;;;;;;;;;;;9.90;72.80;;;;;;5074137;28;19923;-39
2023/04/02 12:55:45;;;;;;;;;;;10.00;70.20;;;;;;5073742;28;20022;-39
2023/04/02 12:58:26;;;;;;;;;;;10.00;69.30;;;;;;5073521;28;20257;-41
2023/04/02 13:00:51;;;;;;;;;;;10.00;71.40;;;;;;5073820;28;19916;-39
2023/04/02 13:03:19;;;;;;;;;;;10.20;72.30;;;;;;5073502;28;19909;-39
2023/04/02 13:05:47;;;;;;;;;;;10.30;71.60;;;;;;5073576;28;19912;-40
2023/04/02 13:08:21;;;;;;;;;;;10.40;72.10;;;;;;5073649;28;20338;-39
2023/04/02 13:10:52;;;;;;;;;;;10.40;64.50;;;;;;5073538;28;20397;-39
2023/04/02 13:13:20;;;;;;;;;;;10.40;63.70;;;;;;5073191;28;19962;-39
2023/04/02 13:15:58;;;;;;;;;;;10.30;63.50;;;;;;5072662;28;20313;-38
2023/04/02 13:18:24;;;;;;;;;;;10.20;62.00;;;;;;5073295;28;19909;-39
2023/04/02 13:21:08;;;;;;;;;;;10.20;64.00;;;;;;5073227;28;20470;-40
2023/04/02 13:23:35;;;;;;;;;;;10.30;65.20;;;;;;5073038;28;19921;-38
2023/04/02 13:26:08;;;;;;;;;;;10.40;69.00;;;;;;5072969;28;19919;-40
2023/04/02 13:28:34;;;;;;;;;;;10.50;71.90;;;;;;5072924;28;20395;-39
2023/04/02 13:30:59;;;;;;;;;;;10.60;75.80;;;;;;5073409;28;19915;-42
2023/04/02 13:33:27;;;;;;;;;;;10.70;76.00;;;;;;5071277;28;20377;-38
2023/04/02 13:35:52;;;;;;;;;;;10.80;76.00;;;;;;5073359;28;20391;-39
2023/04/02 13:38:18;;;;;;;;;;;10.90;75.30;;;;;;5073217;28;20360;-45
2023/04/02 13:40:43;;;;;;;;;;;11.10;75.40;;;;;;5072913;28;19912;-40
2023/04/02 13:43:15;;;;;;;;;;;11.10;74.70;;;;;;5072853;28;19913;-42
2023/04/02 13:45:41;;;;;;;;;;;11.20;77.30;;;;;;5073100;28;19931;-41
2023/04/02 13:48:12;;;;;;;;;;;11.30;75.20;;;;;;5072790;28;19913;-39
2023/04/02 13:50:37;;;;;;;;;;;11.40;72.80;;;;;;5072777;28;20352;-38
2023/04/02 13:53:07;;;;;;;;;;;11.30;67.60;;;;;;5072771;28;19916;-37
2023/04/02 13:55:37;;;;;;;;;;;11.40;70.60;;;;;;5072980;28;19996;-42
2023/04/02 13:58:03;;;;;;;;;;;11.30;67.50;;;;;;5072442;28;19999;-38
2023/04/02 14:00:29;;;;;;;;;;;11.30;68.20;;;;;;5072697;28;19912;-40
2023/04/02 14:02:59;;;;;;;;;;;11.40;67.50;;;;;;5071222;28;19916;-39
2023/04/02 14:05:24;;;;;;;;;;;11.40;68.10;;;;;;5072413;28;19909;-39
2023/04/02 14:07:57;;;;;;;;;;;11.60;69.40;;;;;;5072655;28;19919;-45
2023/04/02 14:10:38;;;;;;;;;;;11.70;70.00;;;;;;5072628;28;19908;-42
2023/04/02 14:13:25;;;;;;;;;;;11.80;68.90;;;;;;5071103;28;19999;-41
2023/04/02 14:15:56;;;;;;;;;;;11.90;67.70;;;;;;5072344;28;19916;-42
2023/04/02 14:18:27;;;;;;;;;;;11.90;67.30;;;;;;5072124;28;19909;-39
2023/04/02 14:21:11;;;;;;;;;;;11.90;64.50;;;;;;5072253;28;19908;-41
2023/04/02 14:23:45;;;;;;;;;;;11.90;67.40;;;;;;5071862;28;19963;-38
2023/04/02 14:26:16;;;;;;;;;;;11.90;63.70;;;;;;5072060;28;19912;-40
2023/04/02 14:28:56;;;;;;;;;;;12.00;66.30;;;;;;5071296;28;19924;-40
2023/04/02 14:31:36;;;;;;;;;;;12.00;60.50;;;;;;5072191;28;19938;-44
2023/04/02 14:34:02;;;;;;;;;;;12.00;63.60;;;;;;5072487;28;20348;-37
2023/04/02 14:36:37;;;;;;;;;;;12.00;61.80;;;;;;5071857;28;19913;-41
2023/04/02 14:39:11;;;;;;;;;;;11.90;58.50;;;;;;5071565;28;19912;-39
2023/04/02 14:41:36;;;;;;;;;;;11.90;58.70;;;;;;5071620;28;19912;-39
2023/04/02 14:44:03;;;;;;;;;;;11.80;57.60;;;;;;5071864;28;20289;-37
2023/04/02 14:46:35;;;;;;;;;;;11.70;59.80;;;;;;5071444;28;19924;-40
2023/04/02 14:49:03;;;;;;;;;;;11.80;60.00;;;;;;5071744;28;19916;-40
2023/04/02 14:51:32;;;;;;;;;;;11.90;61.30;;;;;;5071550;28;19926;-40